createdAt,value
2023-01-05T00:01:57.722Z,8.03
2023-01-05T00:04:24.949Z,9.40
2023-01-05T00:06:52.610Z,8.77
2023-01-05T00:09:20.141Z,7.33
2023-01-05T00:12:06.103Z,6.83
2023-01-05T00:14:53.429Z,4.77
2023-01-05T00:17:43.369Z,8.50
2023-01-05T00:20:38.994Z,8.43
2023-01-05T00:23:09.174Z,6.37
2023-01-05T00:25:41.393Z,10.00
2023-01-05T00:28:08.622Z,8.27
2023-01-05T00:30:43.182Z,8.53
2023-01-05T00:33:13.985Z,6.47
2023-01-05T00:35:42.057Z,8.73
2023-01-05T00:38:10.658Z,9.97
2023-01-05T00:40:37.861Z,8.40
2023-01-05T00:43:05.089Z,6.13
2023-01-05T00:45:32.308Z,4.97
2023-01-05T00:47:59.529Z,7.07
2023-01-05T00:50:27.554Z,4.97
2023-01-05T00:52:54.700Z,9.13
2023-01-05T00:55:21.794Z,7.93
2023-01-05T00:57:48.943Z,3.97
2023-01-05T01:00:19.553Z,9.80
2023-01-05T01:02:47.912Z,10.13
2023-01-05T01:05:15.241Z,10.17
2023-01-05T01:07:42.804Z,10.17
2023-01-05T01:10:11.498Z,4.93
2023-01-05T01:12:38.615Z,11.20
2023-01-05T01:15:11.070Z,7.27
2023-01-05T01:17:47.178Z,7.30
2023-01-05T01:20:14.281Z,6.30
2023-01-05T01:22:41.285Z,8.63
2023-01-05T01:25:09.107Z,10.43
2023-01-05T01:27:36.225Z,5.97
2023-01-05T01:30:03.626Z,8.93
2023-01-05T01:32:30.661Z,9.20
2023-01-05T01:34:57.762Z,7.07
2023-01-05T01:37:24.807Z,9.30
2023-01-05T01:39:51.855Z,10.13
2023-01-05T01:42:21.093Z,10.73
2023-01-05T01:44:59.709Z,7.60
2023-01-05T01:47:59.114Z,5.87
2023-01-05T01:50:52.625Z,10.93
2023-01-05T01:53:29.937Z,9.47
2023-01-05T01:56:02.554Z,7.23
2023-01-05T01:58:32.480Z,7.43
2023-01-05T02:01:03.417Z,6.57
2023-01-05T02:03:32.190Z,4.73
2023-01-05T02:05:59.736Z,7.67
2023-01-05T02:08:31.371Z,10.13
2023-01-05T02:11:07.555Z,7.80
2023-01-05T02:14:49.353Z,10.83
2023-01-05T02:17:41.899Z,10.77
2023-01-05T02:21:17.163Z,7.83
2023-01-05T02:24:33.611Z,6.37
2023-01-05T02:28:15.793Z,5.83
2023-01-05T02:31:36.509Z,7.77
2023-01-05T02:34:20.245Z,4.93
2023-01-05T02:37:28.123Z,6.10
2023-01-05T02:40:09.512Z,10.20
2023-01-05T02:42:38.403Z,5.40
2023-01-05T02:45:08.540Z,4.30
2023-01-05T02:47:45.250Z,7.33
2023-01-05T02:50:26.759Z,7.93
2023-01-05T02:53:28.960Z,11.30
2023-01-05T02:56:20.676Z,6.80
2023-01-05T02:59:17.096Z,5.07
2023-01-05T03:01:59.823Z,6.97
2023-01-05T03:04:53.640Z,7.23
2023-01-05T03:07:28.392Z,6.23
2023-01-05T03:09:57.508Z,5.23
2023-01-05T03:12:53.958Z,5.47
2023-01-05T03:15:32.853Z,4.13
2023-01-05T03:18:14.488Z,5.73
2023-01-05T03:20:48.349Z,3.67
2023-01-05T03:23:38.553Z,6.67
2023-01-05T03:26:28.492Z,3.77
2023-01-05T03:29:20.882Z,4.40
2023-01-05T03:32:41.260Z,4.97
2023-01-05T03:35:38.010Z,9.80
2023-01-05T03:38:21.947Z,6.80
2023-01-05T03:40:53.884Z,7.73
2023-01-05T03:43:22.018Z,7.13
2023-01-05T03:45:56.786Z,7.80
2023-01-05T03:48:27.170Z,9.57
2023-01-05T03:50:55.364Z,5.57
2023-01-05T03:53:22.415Z,5.73
2023-01-05T03:55:49.436Z,6.63
2023-01-05T03:58:16.434Z,9.77
2023-01-05T04:00:43.447Z,12.20
2023-01-05T04:03:10.745Z,9.03
2023-01-05T04:05:37.927Z,9.87
2023-01-05T04:08:06.147Z,10.43
2023-01-05T04:10:33.443Z,13.73
2023-01-05T04:13:00.478Z,12.87
2023-01-05T04:15:27.589Z,11.27
2023-01-05T04:17:54.847Z,12.03
2023-01-05T04:20:24.169Z,12.33
2023-01-05T04:22:51.187Z,14.67
2023-01-05T04:25:18.270Z,13.90
2023-01-05T04:27:45.337Z,10.97
2023-01-05T04:30:12.652Z,11.57
2023-01-05T04:32:39.692Z,8.90
2023-01-05T04:35:10.953Z,10.60
2023-01-05T04:37:39.677Z,7.70
2023-01-05T04:40:07.822Z,14.37
2023-01-05T04:42:34.849Z,13.40
2023-01-05T04:45:01.881Z,19.40
2023-01-05T04:47:28.934Z,12.30
2023-01-05T04:49:55.939Z,12.10
2023-01-05T04:52:22.948Z,8.93
2023-01-05T04:54:50.137Z,12.20
2023-01-05T04:57:17.119Z,6.37
2023-01-05T04:59:44.497Z,4.10
2023-01-05T05:02:12.570Z,6.43
2023-01-05T05:04:39.886Z,6.30
2023-01-05T05:07:07.191Z,3.83
2023-01-05T05:09:34.258Z,7.87
2023-01-05T05:12:01.366Z,5.87
2023-01-05T05:14:28.407Z,11.43
2023-01-05T05:16:55.398Z,8.97
2023-01-05T05:19:22.466Z,14.77
2023-01-05T05:21:49.524Z,12.47
2023-01-05T05:24:16.538Z,7.83
2023-01-05T05:26:43.596Z,5.17
2023-01-05T05:29:12.949Z,6.83
2023-01-05T05:31:40.000Z,9.57
2023-01-05T05:34:07.089Z,13.63
2023-01-05T05:36:37.243Z,16.23
2023-01-05T05:39:04.475Z,8.50
2023-01-05T05:41:31.517Z,6.30
2023-01-05T05:44:00.886Z,11.70
2023-01-05T05:46:28.583Z,3.27
2023-01-05T05:48:59.167Z,5.13
2023-01-05T05:51:27.474Z,3.43
2023-01-05T05:53:54.531Z,4.17
2023-01-05T05:56:21.542Z,9.50
2023-01-05T05:58:52.581Z,2.73
2023-01-05T06:01:23.665Z,3.97
2023-01-05T06:03:51.002Z,4.00
2023-01-05T06:06:18.173Z,3.03
2023-01-05T06:08:45.190Z,0.27
2023-01-05T06:11:12.166Z,2.00
2023-01-05T06:13:39.461Z,1.07
2023-01-05T06:16:07.208Z,0.37
2023-01-05T06:18:34.235Z,2.67
2023-01-05T06:21:02.059Z,3.23
2023-01-05T06:23:29.438Z,2.57
2023-01-05T06:25:56.587Z,2.27
2023-01-05T06:28:23.647Z,1.40
2023-01-05T06:30:50.688Z,2.53
2023-01-05T06:33:17.867Z,0.80
2023-01-05T06:35:47.822Z,2.37
2023-01-05T06:38:16.089Z,2.57
2023-01-05T06:40:45.668Z,1.27
2023-01-05T06:43:13.173Z,0.40
2023-01-05T06:45:40.349Z,2.80
2023-01-05T06:48:09.709Z,2.67
2023-01-05T06:50:36.749Z,1.13
2023-01-05T06:53:13.104Z,1.03
2023-01-05T06:55:40.122Z,2.00
2023-01-05T06:58:07.163Z,2.40
2023-01-05T07:00:34.441Z,0.93
2023-01-05T07:03:01.572Z,0.80
2023-01-05T07:05:28.900Z,2.10
2023-01-05T07:07:56.202Z,2.30
2023-01-05T07:10:23.258Z,2.33
2023-01-05T07:12:50.302Z,2.43
2023-01-05T07:15:17.400Z,1.80
2023-01-05T07:17:44.739Z,2.23
2023-01-05T07:20:11.866Z,1.50
2023-01-05T07:22:38.996Z,0.80
2023-01-05T07:25:06.843Z,1.97
2023-01-05T07:27:33.930Z,4.10
2023-01-05T07:30:01.011Z,1.87
2023-01-05T07:32:30.076Z,2.87
2023-01-05T07:34:57.107Z,1.33
2023-01-05T07:37:25.478Z,2.53
2023-01-05T07:39:53.235Z,20.97
2023-01-05T07:42:20.530Z,12.57
2023-01-05T07:44:47.653Z,10.03
2023-01-05T07:47:14.700Z,1.37
2023-01-05T07:49:41.725Z,0.77
2023-01-05T07:52:08.963Z,1.03
2023-01-05T07:54:35.967Z,1.23
2023-01-05T07:57:03.052Z,1.10
2023-01-05T07:59:30.313Z,1.83
2023-01-05T08:01:58.493Z,2.53
2023-01-05T08:04:25.666Z,1.43
2023-01-05T08:06:52.789Z,0.47
2023-01-05T08:09:38.581Z,0.50
2023-01-05T08:12:06.029Z,0.93
2023-01-05T08:14:33.219Z,1.27
2023-01-05T08:17:00.339Z,1.87
2023-01-05T08:19:27.485Z,0.83
2023-01-05T08:21:54.869Z,0.70
2023-01-05T08:24:21.883Z,2.10
2023-01-05T08:26:51.306Z,1.03
2023-01-05T08:29:21.380Z,0.73
2023-01-05T08:31:48.611Z,1.30
2023-01-05T08:34:15.662Z,0.80
2023-01-05T08:36:42.791Z,1.73
2023-01-05T08:39:13.542Z,2.63
2023-01-05T08:41:41.161Z,1.03
2023-01-05T08:44:13.557Z,0.80
2023-01-05T08:46:41.010Z,1.63
2023-01-05T08:49:09.988Z,2.70
2023-01-05T08:51:37.664Z,1.17
2023-01-05T08:54:05.140Z,1.10
2023-01-05T08:56:38.359Z,2.37
2023-01-05T08:59:06.496Z,0.30
2023-01-05T09:01:33.727Z,1.60
2023-01-05T09:04:00.787Z,2.53
2023-01-05T09:06:27.812Z,2.40
2023-01-05T09:08:55.007Z,4.23
2023-01-05T09:11:28.085Z,3.60
2023-01-05T09:13:59.032Z,1.67
2023-01-05T09:19:18.638Z,4.57
2023-01-05T09:21:45.904Z,3.20
2023-01-05T09:24:13.376Z,3.20
2023-01-05T09:26:42.459Z,3.30
2023-01-05T09:29:11.575Z,5.37
2023-01-05T09:31:41.266Z,2.40
2023-01-05T09:34:11.127Z,3.33
2023-01-05T09:36:39.089Z,3.77
2023-01-05T09:39:06.677Z,3.10
2023-01-05T09:41:43.256Z,2.63
2023-01-05T09:44:41.464Z,1.07
2023-01-05T09:47:37.337Z,3.17
2023-01-05T09:50:17.357Z,2.10
2023-01-05T09:52:44.687Z,1.93
2023-01-05T09:55:24.661Z,3.27
2023-01-05T09:58:14.226Z,6.50
2023-01-05T10:00:49.255Z,1.97
2023-01-05T10:04:01.973Z,3.20
2023-01-05T10:06:15.523Z,1.87
2023-01-05T10:08:51.639Z,2.57
2023-01-05T10:12:14.294Z,2.47
2023-01-05T10:15:19.560Z,2.67
2023-01-05T10:17:47.662Z,3.23
2023-01-05T10:20:45.322Z,3.43
2023-01-05T10:24:02.264Z,3.30
2023-01-05T10:30:22.053Z,4.63
2023-01-05T10:33:35.448Z,6.07
2023-01-05T10:37:09.502Z,4.70
2023-01-05T10:40:07.289Z,2.13
2023-01-05T10:43:23.134Z,7.43
2023-01-05T10:46:19.675Z,2.30
2023-01-05T10:48:40.291Z,1.90
2023-01-05T10:51:09.611Z,4.50
2023-01-05T10:53:44.083Z,4.00
2023-01-05T10:56:30.603Z,1.97
2023-01-05T10:59:15.324Z,2.87
2023-01-05T11:01:49.485Z,4.10
2023-01-05T11:04:32.003Z,5.23
2023-01-05T11:07:06.862Z,4.53
2023-01-05T11:09:41.128Z,3.60
2023-01-05T11:12:21.186Z,6.97
2023-01-05T11:14:59.341Z,2.73
2023-01-05T11:17:29.729Z,6.10
2023-01-05T11:19:58.373Z,3.20
2023-01-05T11:22:38.027Z,7.60
2023-01-05T11:25:33.075Z,5.57
2023-01-05T11:28:17.793Z,5.30
2023-01-05T11:31:05.596Z,4.67
2023-01-05T11:33:39.605Z,4.03
2023-01-05T11:36:07.478Z,4.37
2023-01-05T11:38:35.322Z,5.47
2023-01-05T11:41:02.673Z,5.13
2023-01-05T11:43:33.009Z,3.47
2023-01-05T11:46:04.606Z,5.43
2023-01-05T11:48:35.453Z,3.67
2023-01-05T11:51:03.499Z,6.60
2023-01-05T11:53:33.547Z,4.77
2023-01-05T11:56:16.145Z,7.77
2023-01-05T11:58:54.465Z,5.67
2023-01-05T12:02:00.289Z,5.97
2023-01-05T12:04:54.497Z,3.83
2023-01-05T12:07:36.510Z,5.07
2023-01-05T12:10:12.368Z,4.50
2023-01-05T12:13:45.754Z,6.20
2023-01-05T12:16:53.076Z,5.23
2023-01-05T12:20:08.909Z,5.20
2023-01-05T12:22:53.824Z,5.47
2023-01-05T12:26:04.401Z,4.83
2023-01-05T12:37:04.385Z,4.27
2023-01-05T12:40:10.095Z,3.53
2023-01-05T12:43:11.016Z,3.03
2023-01-05T12:46:04.769Z,4.47
2023-01-05T12:48:38.871Z,6.97
2023-01-05T12:51:51.050Z,3.43
2023-01-05T12:54:53.907Z,4.83
2023-01-05T12:57:48.673Z,6.73
2023-01-05T13:00:20.113Z,7.93
2023-01-05T13:03:03.646Z,6.10
2023-01-05T13:05:56.645Z,9.20
2023-01-05T13:08:34.863Z,5.37
2023-01-05T13:11:44.337Z,5.30
2023-01-05T13:14:25.840Z,2.47
2023-01-05T13:17:27.338Z,6.13
2023-01-05T13:20:52.939Z,1.37
2023-01-05T13:23:57.457Z,2.03
2023-01-05T13:26:24.510Z,2.27
2023-01-05T13:28:55.964Z,1.97
2023-01-05T13:32:03.764Z,3.03
2023-01-05T13:35:08.244Z,0.87
2023-01-05T13:38:41.586Z,3.27
2023-01-05T13:42:01.619Z,2.13
2023-01-05T13:44:59.322Z,3.47
2023-01-05T13:51:55.275Z,2.23
2023-01-05T13:55:01.124Z,1.27
2023-01-05T13:57:41.017Z,3.47
2023-01-05T14:00:13.110Z,1.80
2023-01-05T14:02:45.065Z,1.67
2023-01-05T14:05:34.460Z,2.23
2023-01-05T14:08:06.344Z,0.93
2023-01-05T14:10:34.806Z,1.43
2023-01-05T14:13:03.420Z,7.10
2023-01-05T14:15:37.745Z,0.37
2023-01-05T14:19:18.477Z,2.53
2023-01-05T14:21:51.414Z,2.67
2023-01-05T14:24:48.052Z,2.57
2023-01-05T14:27:24.630Z,0.50
2023-01-05T14:30:00.365Z,1.50
2023-01-05T14:32:34.399Z,1.63
2023-01-05T14:35:39.391Z,3.30
2023-01-05T14:38:24.856Z,3.53
2023-01-05T14:40:59.271Z,1.40
2023-01-05T14:43:54.945Z,4.50
2023-01-05T14:46:28.678Z,3.80
2023-01-05T14:49:16.332Z,1.77
2023-01-05T14:51:58.792Z,2.70
2023-01-05T14:54:41.505Z,4.87
2023-01-05T14:57:26.792Z,1.93
2023-01-05T15:00:05.125Z,1.83
2023-01-05T15:02:44.941Z,1.97
2023-01-05T15:05:17.243Z,2.87
2023-01-05T15:08:19.513Z,1.63
2023-01-05T15:11:14.813Z,2.80
2023-01-05T15:14:26.369Z,2.20
2023-01-05T15:17:36.807Z,4.63
2023-01-05T15:21:00.418Z,5.73
2023-01-05T15:24:08.566Z,5.87
2023-01-05T15:27:00.502Z,3.57
2023-01-05T15:30:21.866Z,3.27
2023-01-05T15:33:21.980Z,3.97
2023-01-05T15:35:57.641Z,3.57
2023-01-05T15:38:29.174Z,2.63
2023-01-05T15:41:08.603Z,1.93
2023-01-05T15:43:40.233Z,4.57
2023-01-05T15:46:08.143Z,5.33
2023-01-05T15:48:45.345Z,4.43
2023-01-05T15:51:32.089Z,2.23
2023-01-05T15:54:06.540Z,4.87
2023-01-05T15:56:42.494Z,2.67
2023-01-05T15:59:48.483Z,3.47
2023-01-05T16:02:31.108Z,1.97
2023-01-05T16:05:22.679Z,2.33
2023-01-05T16:08:01.668Z,3.03
2023-01-05T16:10:47.863Z,2.10
2023-01-05T16:13:50.372Z,3.70
2023-01-05T16:16:52.469Z,4.27
2023-01-05T16:19:56.397Z,2.10
2023-01-05T16:23:31.127Z,3.83
2023-01-05T16:25:59.909Z,6.20
2023-01-05T16:28:27.234Z,5.87
2023-01-05T16:30:55.259Z,3.70
2023-01-05T16:33:35.739Z,3.50
2023-01-05T16:36:22.517Z,1.67
2023-01-05T16:38:49.976Z,4.67
2023-01-05T16:41:26.570Z,4.87
2023-01-05T16:44:00.946Z,4.13
2023-01-05T16:46:39.643Z,3.43
2023-01-05T16:49:57.611Z,4.30
2023-01-05T16:52:29.007Z,2.13
2023-01-05T16:55:30.767Z,4.07
2023-01-05T16:58:00.672Z,7.53
2023-01-05T17:00:31.549Z,4.00
2023-01-05T17:03:23.788Z,2.83
2023-01-05T17:05:58.549Z,3.67
2023-01-05T17:08:31.683Z,5.17
2023-01-05T17:11:01.405Z,3.10
2023-01-05T17:13:39.812Z,2.00
2023-01-05T17:16:09.938Z,4.73
2023-01-05T17:18:37.269Z,2.97
2023-01-05T17:21:06.858Z,4.50
2023-01-05T17:23:48.466Z,3.73
2023-01-05T17:26:21.824Z,4.07
2023-01-05T17:28:49.398Z,5.23
2023-01-05T17:31:16.464Z,10.13
2023-01-05T17:33:43.512Z,3.90
2023-01-05T17:36:10.920Z,5.67
2023-01-05T17:38:38.128Z,5.30
2023-01-05T17:41:05.367Z,8.60
2023-01-05T17:43:32.581Z,5.53
2023-01-05T17:45:59.591Z,2.43
2023-01-05T17:48:26.740Z,2.47
2023-01-05T17:50:54.460Z,3.87
2023-01-05T17:53:21.671Z,6.97
2023-01-05T17:55:48.770Z,5.17
2023-01-05T17:58:15.943Z,4.93
2023-01-05T18:03:17.036Z,3.23
2023-01-05T18:05:45.213Z,6.20
2023-01-05T18:08:12.547Z,7.53
2023-01-05T18:13:14.663Z,2.83
2023-01-05T18:15:45.646Z,5.20
2023-01-05T18:18:13.991Z,8.13
2023-01-05T18:20:42.533Z,3.07
2023-01-05T18:23:10.537Z,5.97
2023-01-05T18:25:39.618Z,4.00
2023-01-05T18:28:06.793Z,7.60
2023-01-05T18:30:34.019Z,7.77
2023-01-05T18:33:01.248Z,3.83
2023-01-05T18:35:30.942Z,2.97
2023-01-05T18:38:00.902Z,5.23
2023-01-05T18:40:29.012Z,3.87
2023-01-05T18:42:56.180Z,8.93
2023-01-05T18:45:32.124Z,2.63
2023-01-05T18:48:05.328Z,4.63
2023-01-05T18:50:32.366Z,4.60
2023-01-05T18:53:02.342Z,3.27
2023-01-05T18:55:29.339Z,3.30
2023-01-05T18:57:56.351Z,9.50
2023-01-05T19:00:23.429Z,6.10
2023-01-05T19:02:50.972Z,5.47
2023-01-05T19:05:18.262Z,2.03
2023-01-05T19:07:45.310Z,2.00
2023-01-05T19:10:12.389Z,4.07
2023-01-05T19:12:39.615Z,5.63
2023-01-05T19:15:07.500Z,4.37
2023-01-05T19:17:34.586Z,2.47
2023-01-05T19:20:01.713Z,1.60
2023-01-05T19:22:28.727Z,3.13
2023-01-05T19:24:56.801Z,7.63
2023-01-05T19:27:23.884Z,3.97
2023-01-05T19:29:50.944Z,3.87
2023-01-05T19:32:17.935Z,4.03
2023-01-05T19:34:45.008Z,3.57
2023-01-05T19:37:12.068Z,9.13
2023-01-05T19:39:39.111Z,3.93
2023-01-05T19:42:06.167Z,4.43
2023-01-05T19:44:33.164Z,4.80
2023-01-05T19:47:00.421Z,4.53
2023-01-05T19:49:28.623Z,3.60
2023-01-05T19:51:56.436Z,3.30
2023-01-05T19:54:25.540Z,2.80
2023-01-05T19:56:54.658Z,4.20
2023-01-05T19:59:32.685Z,3.80
2023-01-05T20:02:02.444Z,4.13
2023-01-05T20:04:30.661Z,5.63
2023-01-05T20:07:03.905Z,3.87
2023-01-05T20:09:31.818Z,2.33
2023-01-05T20:12:09.145Z,2.50
2023-01-05T20:14:41.263Z,6.37
2023-01-05T20:17:11.242Z,4.20
2023-01-05T20:19:39.543Z,6.20
2023-01-05T20:22:13.609Z,4.00
2023-01-05T20:24:41.882Z,3.23
2023-01-05T20:27:14.759Z,3.43
2023-01-05T20:29:41.935Z,3.43
2023-01-05T20:32:29.147Z,4.37
2023-01-05T20:35:00.219Z,5.67
2023-01-05T20:37:32.522Z,3.53
2023-01-05T20:40:02.846Z,7.43
2023-01-05T20:42:30.619Z,2.93
2023-01-05T20:44:58.175Z,8.40
2023-01-05T20:47:25.486Z,5.83
2023-01-05T20:49:53.444Z,4.47
2023-01-05T20:52:20.503Z,6.27
2023-01-05T20:54:49.563Z,4.23
2023-01-05T20:57:16.611Z,4.53
2023-01-05T20:59:43.604Z,5.60
2023-01-05T21:02:23.652Z,2.83
2023-01-05T21:04:53.179Z,5.70
2023-01-05T21:07:20.820Z,5.87
2023-01-05T21:09:49.757Z,4.20
2023-01-05T21:12:17.302Z,4.07
2023-01-05T21:14:44.454Z,7.87
2023-01-05T21:17:11.434Z,2.80
2023-01-05T21:19:38.500Z,3.43
2023-01-05T21:22:05.509Z,3.67
2023-01-05T21:24:32.494Z,4.30
2023-01-05T21:26:59.497Z,5.20
2023-01-05T21:29:26.564Z,5.67
2023-01-05T21:31:56.906Z,4.20
2023-01-05T21:34:24.345Z,4.90
2023-01-05T21:36:52.311Z,6.70
2023-01-05T21:39:24.578Z,4.63
2023-01-05T21:42:12.013Z,4.37
2023-01-05T21:44:39.736Z,5.30
2023-01-05T21:47:07.581Z,3.67
2023-01-05T21:49:36.210Z,3.83
2023-01-05T21:52:23.169Z,6.70
2023-01-05T21:55:08.583Z,4.70
2023-01-05T21:57:35.693Z,4.37
2023-01-05T22:00:03.730Z,6.23
2023-01-05T22:02:30.755Z,2.47
2023-01-05T22:04:57.808Z,6.97
2023-01-05T22:07:24.942Z,5.67
2023-01-05T22:09:51.913Z,6.40
2023-01-05T22:12:18.997Z,3.87
2023-01-05T22:14:46.195Z,7.33
2023-01-05T22:17:13.303Z,6.97
2023-01-05T22:19:40.373Z,4.57
2023-01-05T22:22:07.434Z,8.43
2023-01-05T22:24:34.509Z,2.40
2023-01-05T22:27:01.541Z,3.53
2023-01-05T22:29:28.608Z,5.77
2023-01-05T22:31:55.776Z,5.07
2023-01-05T22:34:22.762Z,4.20
2023-01-05T22:36:49.983Z,7.10
2023-01-05T22:39:17.152Z,4.13
2023-01-05T22:41:45.451Z,6.37
2023-01-05T22:44:12.585Z,8.90
2023-01-05T22:46:39.610Z,6.23
2023-01-05T22:49:06.754Z,3.30
2023-01-05T22:51:38.403Z,4.27
2023-01-05T22:54:05.587Z,2.13
2023-01-05T22:56:35.007Z,6.30
2023-01-05T22:59:02.584Z,2.67
2023-01-05T23:01:39.650Z,3.10
2023-01-05T23:04:07.528Z,3.00
2023-01-05T23:06:35.019Z,2.37
2023-01-05T23:09:06.132Z,3.70
2023-01-05T23:11:38.270Z,5.30
2023-01-05T23:14:09.763Z,3.50
2023-01-05T23:16:37.228Z,2.80
2023-01-05T23:19:07.672Z,4.53
2023-01-05T23:21:35.052Z,6.93
2023-01-05T23:24:02.389Z,4.17
2023-01-05T23:26:30.392Z,4.33
2023-01-05T23:28:57.902Z,3.73
2023-01-05T23:31:25.761Z,2.40
2023-01-05T23:33:52.947Z,1.33
2023-01-05T23:36:23.442Z,1.93
2023-01-05T23:38:50.562Z,7.33
2023-01-05T23:41:18.918Z,4.37
2023-01-05T23:43:46.821Z,7.07
2023-01-05T23:46:23.661Z,5.47
2023-01-05T23:48:52.317Z,6.70
2023-01-05T23:51:19.483Z,3.10
2023-01-05T23:53:53.248Z,3.07
2023-01-05T23:56:28.815Z,2.23
2023-01-05T23:59:05.693Z,4.17
